Time;durP1;ratioP1;P1;durP2;ratioP2;P2;SDS_P1;SDS_P2;PMS_P1;PMS_P2;Temp;Humidity;BMP_temperature;BMP_pressure;BME280_temperature;BME280_humidity;BME280_pressure;Samples;Min_cycle;Max_cycle;Signal;HPM_P1;HPM_P2
2023/11/15 00:00:47;;;;;;;3.78;1.90;;;;;;;11.87;56.73;98421.81;5017195;28;20075;-82
2023/11/15 00:03:13;;;;;;;4.57;2.10;;;;;;;11.83;56.66;98418.66;5050605;28;20099;-82
2023/11/15 00:05:38;;;;;;;4.47;2.10;;;;;;;11.86;56.64;98428.00;5033983;28;20515;-82
2023/11/15 00:08:04;;;;;;;4.20;2.15;;;;;;;11.82;56.47;98395.25;5034498;28;20090;-82
2023/11/15 00:10:31;;;;;;;3.67;2.10;;;;;;;11.83;56.70;98394.25;5034219;28;20037;-82
2023/11/15 00:12:57;;;;;;;4.40;2.20;;;;;;;11.85;56.83;98394.97;5050729;28;20037;-82
2023/11/15 00:15:22;;;;;;;3.92;2.17;;;;;;;11.86;56.57;98397.47;5033752;28;20504;-82
2023/11/15 00:17:48;;;;;;;4.78;2.22;;;;;;;11.84;56.82;98393.31;5050515;28;20025;-83
2023/11/15 00:20:14;;;;;;;3.55;2.08;;;;;;;11.81;56.73;98380.50;5050345;28;20116;-83
2023/11/15 00:22:40;;;;;;;4.93;2.50;;;;;;;11.84;56.69;98369.78;5034126;28;20487;-83
2023/11/15 00:25:06;;;;;;;4.05;2.30;;;;;;;11.84;56.46;98370.59;5018111;28;20463;-82
2023/11/15 00:27:31;;;;;;;5.38;2.33;;;;;;;11.86;56.23;98373.91;5051669;28;20408;-81
2023/11/15 00:29:57;;;;;;;3.55;2.08;;;;;;;11.81;56.73;98367.44;5050616;28;20025;-83
2023/11/15 00:32:23;;;;;;;4.80;2.33;;;;;;;11.85;56.48;98371.44;5019159;28;20136;-83
2023/11/15 00:34:48;;;;;;;4.07;2.20;;;;;;;11.77;56.65;98366.88;5037304;28;20045;-82
2023/11/15 00:37:14;;;;;;;3.53;2.40;;;;;;;11.76;56.79;98367.81;5021639;28;20048;-83
2023/11/15 00:39:41;;;;;;;5.32;2.15;;;;;;;11.79;56.72;98387.66;5037654;28;20488;-84
2023/11/15 00:42:08;;;;;;;4.68;2.30;;;;;;;11.77;56.61;98391.22;5037845;28;20098;-82
2023/11/15 00:44:33;;;;;;;3.20;2.17;;;;;;;11.80;56.63;98394.53;5054420;28;20459;-82
2023/11/15 00:46:59;;;;;;;5.03;2.20;;;;;;;11.75;57.13;98380.09;5037676;28;20029;-83
2023/11/15 00:49:24;;;;;;;5.65;2.85;;;;;;;11.72;57.22;98377.72;5054197;28;20029;-83
2023/11/15 00:51:50;;;;;;;4.05;2.47;;;;;;;11.74;56.90;98382.81;5038015;28;20041;-82
2023/11/15 00:54:16;;;;;;;5.68;2.42;;;;;;;11.74;57.35;98386.25;5054011;28;20467;-82
2023/11/15 00:56:41;;;;;;;4.97;2.40;;;;;;;11.74;57.42;98386.25;5020801;28;20060;-82
2023/11/15 00:59:06;;;;;;;4.68;2.40;;;;;;;11.73;57.17;98379.41;5036984;28;20040;-82
2023/11/15 01:01:32;;;;;;;4.68;2.50;;;;;;;11.69;57.26;98367.53;5037861;28;20078;-83
2023/11/15 01:03:58;;;;;;;4.50;2.50;;;;;;;11.72;57.31;98369.88;5037788;28;20476;-82
2023/11/15 01:06:26;;;;;;;3.70;2.50;;;;;;;11.69;57.39;98370.16;5055093;28;20400;-83
2023/11/15 01:08:53;;;;;;;3.53;2.20;;;;;;;11.67;57.49;98352.94;5037491;28;20423;-82
2023/11/15 01:11:18;;;;;;;3.63;2.17;;;;;;;11.63;57.70;98348.94;5020819;28;20071;-82
2023/11/15 01:13:47;;;;;;;3.33;2.40;;;;;;;11.67;57.67;98352.94;5053731;28;20103;-83
2023/11/15 01:16:13;;;;;;;;;;;;;;;11.67;57.66;98348.56;5037771;28;20029;-83
2023/11/15 01:18:39;;;;;;;4.50;2.50;;;;;;;11.58;57.82;98355.38;5053477;28;19919;-82
2023/11/15 01:21:07;;;;;;;5.18;2.40;;;;;;;11.62;58.09;98357.75;5053629;28;20028;-81
2023/11/15 01:23:33;;;;;;;3.88;2.45;;;;;;;11.55;58.22;98347.81;5020813;28;20120;-82
2023/11/15 01:25:58;;;;;;;4.80;2.53;;;;;;;11.55;57.97;98344.38;5037242;28;20037;-84
2023/11/15 01:28:24;;;;;;;6.57;2.85;;;;;;;11.53;58.35;98333.25;5036810;28;20040;-82
2023/11/15 01:30:50;;;;;;;4.40;2.67;;;;;;;11.56;58.26;98333.78;5036787;28;20033;-83
2023/11/15 01:33:15;;;;;;;4.22;2.70;;;;;;;11.55;58.18;98332.13;5036614;28;20045;-82
2023/11/15 01:35:42;;;;;;;10.02;2.78;;;;;;;11.59;58.62;98340.53;5036484;28;20396;-84
2023/11/15 01:38:07;;;;;;;4.22;2.78;;;;;;;11.53;58.35;98331.44;5036560;28;20036;-82
2023/11/15 01:40:34;;;;;;;5.95;2.80;;;;;;;11.55;58.14;98334.75;5020111;28;20492;-82
2023/11/15 01:42:59;;;;;;;7.32;2.78;;;;;;;11.53;58.17;98328.81;5019771;28;20476;-81
2023/11/15 01:45:25;;;;;;;6.82;3.00;;;;;;;11.49;58.13;98318.78;5052944;28;20029;-81
2023/11/15 01:47:51;;;;;;;4.18;2.92;;;;;;;11.51;58.23;98316.84;5037381;28;20032;-81
2023/11/15 01:50:17;;;;;;;6.50;3.00;;;;;;;11.52;58.16;98314.09;5037016;28;20036;-81
2023/11/15 01:52:44;;;;;;;6.25;3.00;;;;;;;11.50;58.21;98317.81;5020204;28;20374;-81
2023/11/15 01:55:12;;;;;;;4.07;2.90;;;;;;;11.47;58.14;98313.69;5019577;28;20072;-81
2023/11/15 01:57:37;;;;;;;4.18;2.78;;;;;;;11.46;58.38;98300.75;5020149;28;20389;-81
2023/11/15 02:00:06;;;;;;;5.38;2.70;;;;;;;11.44;58.60;98292.22;5019883;28;20103;-81
2023/11/15 02:02:32;;;;;;;4.78;3.03;;;;;;;11.43;58.71;98287.94;5038344;28;20099;-81
2023/11/15 02:04:57;;;;;;;4.82;2.80;;;;;;;11.39;58.65;98284.78;5038951;28;20045;-80
2023/11/15 02:07:23;;;;;;;6.55;2.97;;;;;;;11.40;58.68;98295.09;5055710;28;20033;-76
2023/11/15 02:09:48;;;;;;;8.60;3.15;;;;;;;11.40;59.13;98297.72;5041076;28;20495;-80
2023/11/15 02:12:14;;;;;;;5.45;3.10;;;;;;;11.37;58.79;98286.69;5020573;28;20179;-79
2023/11/15 02:14:39;;;;;;;4.57;2.90;;;;;;;11.40;58.80;98302.09;5052866;28;20112;-79
2023/11/15 02:17:05;;;;;;;5.82;3.00;;;;;;;11.35;59.12;98307.75;5054330;28;20028;-78
2023/11/15 02:19:30;;;;;;;4.65;3.15;;;;;;;11.35;58.84;98297.28;5036961;28;20381;-78
2023/11/15 02:21:56;;;;;;;6.68;3.17;;;;;;;11.39;59.03;98297.84;5035516;28;20087;-78
2023/11/15 02:24:21;;;;;;;7.75;3.00;;;;;;;11.38;58.80;98293.56;5052484;28;20032;-78
2023/11/15 02:26:47;;;;;;;11.13;3.42;;;;;;;11.37;58.75;98295.34;5052884;28;20036;-78
2023/11/15 02:29:13;;;;;;;3.97;2.70;;;;;;;11.35;58.81;98285.97;5052438;28;20382;-78
2023/11/15 02:31:38;;;;;;;6.22;3.22;;;;;;;11.32;59.01;98291.47;5019992;28;20074;-76
2023/11/15 02:34:04;;;;;;;6.60;3.33;;;;;;;11.34;58.98;98290.41;5053046;28;20416;-81
2023/11/15 02:36:29;;;;;;;4.75;2.97;;;;;;;11.28;59.14;98290.91;5019189;28;20455;-82
2023/11/15 02:38:55;;;;;;;4.22;2.70;;;;;;;11.29;59.00;98300.44;5052325;28;20459;-82
2023/11/15 02:41:21;;;;;;;8.82;2.92;;;;;;;11.29;58.97;98300.44;5052196;28;20095;-82
2023/11/15 02:43:46;;;;;;;4.40;3.05;;;;;;;11.30;58.98;98288.19;5035234;28;20041;-82
2023/11/15 02:46:17;;;;;;;5.88;3.03;;;;;;;11.21;58.87;98288.00;5018644;28;20029;-82
2023/11/15 02:48:42;;;;;;;6.45;2.90;;;;;;;11.24;59.19;98292.13;5036711;28;20472;-83
2023/11/15 02:51:08;;;;;;;6.28;2.67;;;;;;;11.21;59.05;98282.78;5035366;28;20036;-81
2023/11/15 02:53:34;;;;;;;4.88;2.90;;;;;;;11.20;59.33;98275.91;5035572;28;20036;-81
2023/11/15 02:56:00;;;;;;;4.55;3.03;;;;;;;11.24;59.45;98289.53;5052465;28;20397;-84
2023/11/15 02:58:25;;;;;;;4.25;2.80;;;;;;;11.24;59.60;98281.69;5053151;28;20114;-84
2023/11/15 03:00:51;;;;;;;5.18;2.90;;;;;;;11.21;59.43;98268.88;5051577;28;20469;-82
2023/11/15 03:03:17;;;;;;;6.78;3.35;;;;;;;11.22;59.39;98294.06;5052224;28;20064;-82
2023/11/15 03:05:42;;;;;;;4.68;3.08;;;;;;;11.21;59.28;98295.00;5018631;28;20082;-85
2023/11/15 03:08:08;;;;;;;4.25;3.30;;;;;;;11.23;59.35;98293.94;5035365;28;20087;-84
2023/11/15 03:10:34;;;;;;;5.38;3.00;;;;;;;11.27;59.62;98297.09;5035172;28;20033;-84
2023/11/15 03:13:00;;;;;;;3.83;2.70;;;;;;;11.29;59.51;98289.13;5034932;28;20036;-84
2023/11/15 03:15:27;;;;;;;6.03;3.10;;;;;;;11.31;59.93;98276.78;5035672;28;20427;-87
2023/11/15 03:17:52;;;;;;;4.22;2.53;;;;;;;11.30;59.85;98291.59;5053018;28;20033;-90
2023/11/15 03:20:18;;;;;;;4.40;2.63;;;;;;;11.29;59.52;98294.34;5051908;28;20102;-89
2023/11/15 03:22:44;;;;;;;4.35;2.83;;;;;;;11.26;59.95;98277.16;5035138;28;20496;-89
2023/11/15 03:25:09;;;;;;;4.78;3.22;;;;;;;11.28;59.91;98279.66;5052701;28;20029;-84
2023/11/15 03:27:35;;;;;;;6.60;2.88;;;;;;;11.26;59.44;98279.78;5052434;28;20381;-84
2023/11/15 03:30:00;;;;;;;4.22;2.60;;;;;;;11.26;59.65;98290.22;5051850;28;20037;-83
2023/11/15 03:32:26;;;;;;;4.78;2.83;;;;;;;11.26;59.75;98299.84;5050388;28;20102;-83
2023/11/15 03:34:51;;;;;;;5.10;2.92;;;;;;;11.17;59.73;98286.63;5051185;28;20036;-83
2023/11/15 03:37:17;;;;;;;4.13;2.47;;;;;;;11.18;59.84;98287.44;5034837;28;20127;-83
2023/11/15 03:39:42;;;;;;;3.92;2.55;;;;;;;11.24;59.70;98294.75;5034587;28;20047;-83
2023/11/15 03:42:08;;;;;;;3.53;2.30;;;;;;;11.21;59.64;98295.00;5034767;28;20507;-83
2023/11/15 03:44:33;;;;;;;4.20;2.85;;;;;;;11.20;59.52;98301.22;5051058;28;20469;-83
2023/11/15 03:46:59;;;;;;;3.50;2.40;;;;;;;11.17;59.54;98309.31;5052635;28;20041;-82
2023/11/15 03:49:24;;;;;;;5.20;2.65;;;;;;;11.17;59.75;98291.84;5051133;28;20447;-82
2023/11/15 03:51:50;;;;;;;6.45;2.42;;;;;;;11.14;59.50;98289.50;5052448;28;20515;-84
2023/11/15 03:54:16;;;;;;;5.43;2.42;;;;;;;11.10;59.54;98288.13;5051040;28;20087;-83
2023/11/15 03:56:42;;;;;;;3.90;2.60;;;;;;;11.11;59.86;98299.38;5034629;28;20090;-84
2023/11/15 03:59:08;;;;;;;3.88;2.47;;;;;;;11.11;59.61;98288.94;5050775;28;20099;-83
2023/11/15 04:01:33;;;;;;;6.25;3.08;;;;;;;11.10;59.73;98282.91;5051341;28;20045;-83
2023/11/15 04:03:59;;;;;;;5.03;2.60;;;;;;;11.09;59.93;98275.19;5017930;28;20455;-84
2023/11/15 04:06:27;;;;;;;6.95;2.78;;;;;;;11.03;59.76;98256.44;5035575;28;20064;-83
2023/11/15 04:08:56;;;;;;;5.75;2.90;;;;;;;11.08;59.87;98261.28;5039064;28;20389;-83
2023/11/15 04:11:22;;;;;;;3.70;2.53;;;;;;;11.03;60.07;98253.03;5038735;28;20396;-83
2023/11/15 04:13:47;;;;;;;4.55;2.60;;;;;;;11.07;60.11;98251.81;5038132;28;20025;-84
2023/11/15 04:16:14;;;;;;;4.72;2.97;;;;;;;11.06;60.09;98254.56;5055274;28;20063;-85
2023/11/15 04:18:39;;;;;;;7.78;3.33;;;;;;;11.00;59.97;98240.22;5038249;28;20025;-84
2023/11/15 04:21:05;;;;;;;5.22;3.10;;;;;;;11.03;60.20;98243.38;5038419;28;20396;-84
2023/11/15 04:23:31;;;;;;;7.10;3.17;;;;;;;11.03;60.13;98237.34;5064478;28;20025;-83
2023/11/15 04:25:58;;;;;;;3.80;2.78;;;;;;;10.96;60.17;98233.59;5058460;28;20029;-84
2023/11/15 04:28:24;;;;;;;4.47;2.90;;;;;;;10.93;59.87;98221.66;5042806;28;20025;-85
2023/11/15 04:30:49;;;;;;;5.57;3.17;;;;;;;11.02;59.94;98238.28;5038352;28;20033;-85
2023/11/15 04:33:15;;;;;;;5.45;2.97;;;;;;;10.97;59.96;98228.25;5037782;28;20538;-83
2023/11/15 04:35:41;;;;;;;5.57;3.20;;;;;;;10.94;59.97;98227.69;5054591;28;20029;-83
2023/11/15 04:38:09;;;;;;;6.30;3.30;;;;;;;10.95;59.91;98230.16;5054811;28;20037;-85
2023/11/15 04:40:37;;;;;;;5.32;3.20;;;;;;;10.93;60.20;98242.53;5055170;28;20028;-85
2023/11/15 04:43:05;;;;;;;7.13;3.72;;;;;;;10.90;60.12;98245.41;5056590;28;20047;-85
2023/11/15 04:45:31;;;;;;;8.18;3.10;;;;;;;10.91;60.49;98241.84;5022155;28;20067;-87
2023/11/15 04:47:56;;;;;;;5.38;3.42;;;;;;;10.86;60.37;98236.19;5037920;28;20044;-86
2023/11/15 04:50:22;;;;;;;4.45;3.15;;;;;;;10.87;60.23;98227.41;5037625;28;20037;-86
2023/11/15 04:52:48;;;;;;;8.00;3.13;;;;;;;10.81;60.28;98210.47;5055572;28;20029;-84
2023/11/15 04:55:14;;;;;;;4.97;3.25;;;;;;;10.83;60.10;98216.41;5037462;28;20038;-85
2023/11/15 04:57:40;;;;;;;7.55;3.20;;;;;;;10.88;60.09;98228.22;5037817;28;20033;-85
2023/11/15 05:00:09;;;;;;;4.05;2.80;;;;;;;10.86;60.29;98229.19;5038575;28;20458;-85
2023/11/15 05:02:35;;;;;;;4.00;3.05;;;;;;;10.83;60.21;98221.63;5054292;28;20033;-85
2023/11/15 05:05:01;;;;;;;9.57;3.45;;;;;;;10.85;60.18;98217.09;5037422;28;20029;-85
2023/11/15 05:07:26;;;;;;;4.20;2.83;;;;;;;10.82;60.26;98212.13;5037573;28;20051;-85
2023/11/15 05:09:51;;;;;;;4.75;3.15;;;;;;;10.81;60.42;98199.19;5037095;28;20100;-84
2023/11/15 05:12:17;;;;;;;4.57;3.15;;;;;;;10.82;60.08;98198.25;5036939;28;20103;-86
2023/11/15 05:14:43;;;;;;;5.20;3.00;;;;;;;10.85;60.28;98203.22;5053825;28;20021;-83
2023/11/15 05:17:09;;;;;;;5.18;3.38;;;;;;;10.80;60.25;98190.56;5037152;28;20037;-85
2023/11/15 05:19:36;;;;;;;10.48;3.45;;;;;;;10.92;63.78;98200.88;5020804;28;20045;-84
2023/11/15 05:22:04;;;;;;;5.15;3.22;;;;;;;11.12;61.87;98204.41;5042545;28;20121;-83
2023/11/15 05:24:29;;;;;;;7.40;3.10;;;;;;;11.15;61.46;98196.28;5053147;28;20482;-82
2023/11/15 05:26:55;;;;;;;4.68;3.05;;;;;;;11.18;60.81;98186.41;5020849;28;20072;-83
2023/11/15 05:29:21;;;;;;;6.10;3.17;;;;;;;11.34;60.23;98201.53;5053124;28;20479;-81
2023/11/15 05:31:48;;;;;;;5.00;3.58;;;;;;;11.50;59.72;98189.75;5036826;28;20044;-85
2023/11/15 05:34:14;;;;;;;7.72;3.85;;;;;;;11.52;59.35;98179.97;5038637;28;20613;-83
2023/11/15 05:36:39;;;;;;;5.43;3.60;;;;;;;11.50;59.26;98164.44;5036888;28;20041;-80
2023/11/15 05:39:05;;;;;;;6.80;3.28;;;;;;;11.69;61.37;98179.28;5053557;28;20036;-79
2023/11/15 05:41:30;;;;;;;5.30;3.60;;;;;;;11.73;60.03;98180.69;5053884;28;20502;-77
2023/11/15 05:43:56;;;;;;;5.82;4.00;;;;;;;11.94;59.04;98174.50;5053289;28;20476;-81
2023/11/15 05:46:21;;;;;;;6.68;4.10;;;;;;;12.46;57.65;98169.69;5036343;28;20033;-80
2023/11/15 05:48:47;;;;;;;17.88;3.05;;;;;;;13.02;67.23;98174.97;5020133;28;20033;-78
2023/11/15 05:51:13;;;;;;;7.18;3.70;;;;;;;13.68;59.54;98168.63;5036697;28;20106;-79
2023/11/15 05:53:38;;;;;;;10.20;4.35;;;;;;;13.97;55.11;98166.72;5036859;28;20553;-79
2023/11/15 05:56:07;;;;;;;18.65;6.65;;;;;;;14.06;60.22;98165.81;5056645;28;20438;-77
2023/11/15 05:58:32;;;;;;;10.90;4.43;;;;;;;14.09;56.38;98171.56;5052910;28;20401;-79
2023/11/15 06:00:58;;;;;;;7.07;3.95;;;;;;;14.15;55.13;98174.53;5052835;28;20025;-78
2023/11/15 06:03:24;;;;;;;10.25;4.10;;;;;;;14.27;54.18;98170.69;5036371;28;20041;-77
2023/11/15 06:05:50;;;;;;;9.18;3.80;;;;;;;14.53;57.63;98159.34;5055076;28;20048;-76
2023/11/15 06:08:15;;;;;;;12.38;3.20;;;;;;;14.87;62.58;98159.38;5052952;28;20451;-78
2023/11/15 06:10:41;;;;;;;8.13;3.25;;;;;;;15.89;60.09;98165.34;5019314;28;20049;-75
2023/11/15 06:13:06;;;;;;;10.50;2.72;;;;;;;16.27;58.39;98170.91;5017998;28;20508;-76
2023/11/15 06:15:32;;;;;;;6.65;3.10;;;;;;;16.63;56.78;98159.94;5034949;28;20032;-76
2023/11/15 06:17:57;;;;;;;6.13;2.83;;;;;;;17.25;54.32;98174.19;5051163;28;20037;-77
2023/11/15 06:20:23;;;;;;;6.70;2.90;;;;;;;17.93;52.68;98170.94;5034997;28;20055;-81
2023/11/15 06:22:49;;;;;;;5.15;3.05;;;;;;;19.38;48.38;98156.44;5034524;28;20548;-80
2023/11/15 06:25:18;;;;;;;10.52;3.40;;;;;;;20.47;44.94;98153.50;5051747;28;20027;-79
2023/11/15 06:27:44;;;;;;;5.53;3.08;;;;;;;21.75;41.50;98162.78;5035392;28;20025;-79
2023/11/15 06:30:12;;;;;;;9.52;3.22;;;;;;;22.71;39.37;98161.50;5018532;28;20371;-78
2023/11/15 06:32:38;;;;;;;5.65;3.22;;;;;;;23.92;36.23;98157.19;5034514;28;20072;-77
2023/11/15 06:35:03;;;;;;;6.78;3.05;;;;;;;24.95;32.93;98146.13;5034786;28;20027;-79
2023/11/15 06:37:29;;;;;;;10.18;3.47;;;;;;;25.41;30.78;98142.88;5034564;28;20098;-78
2023/11/15 06:39:55;;;;;;;7.38;3.10;;;;;;;26.04;30.02;98132.66;5052545;28;20076;-79
2023/11/15 06:42:22;;;;;;;6.60;3.08;;;;;;;27.35;28.33;98127.88;5034683;28;20063;-79
2023/11/15 06:44:48;;;;;;;7.97;3.23;;;;;;;27.64;27.81;98114.41;5051906;28;20441;-80
2023/11/15 06:47:14;;;;;;;12.20;3.55;;;;;;;28.11;26.24;98114.09;5019019;28;20349;-80
2023/11/15 06:49:41;;;;;;;14.05;3.30;;;;;;;27.14;27.35;98124.00;5035368;28;20065;-78
2023/11/15 06:52:06;;;;;;;7.32;3.55;;;;;;;26.23;28.03;98133.34;5035551;28;20029;-78
2023/11/15 06:54:32;;;;;;;8.52;3.22;;;;;;;25.33;30.01;98137.81;5035096;28;20044;-79
2023/11/15 06:56:58;;;;;;;7.93;3.20;;;;;;;25.02;31.13;98144.19;5018733;28;20035;-80
2023/11/15 06:59:23;;;;;;;11.23;3.75;;;;;;;25.02;30.14;98144.19;5018451;28;20099;-79
2023/11/15 07:01:51;;;;;;;6.80;3.60;;;;;;;25.46;30.05;98145.66;5018440;28;20033;-79
2023/11/15 07:04:16;;;;;;;8.77;4.03;;;;;;;25.68;29.00;98130.94;5018896;28;20044;-77
2023/11/15 07:06:48;;;;;;;7.95;3.92;;;;;;;25.92;28.46;98139.81;5051478;28;20553;-78
2023/11/15 07:09:20;;;;;;;9.70;3.72;;;;;;;26.19;28.34;98153.59;5051861;28;20082;-78
2023/11/15 07:11:46;;;;;;;5.40;3.67;;;;;;;26.40;28.00;98149.50;5035922;28;20393;-78
2023/11/15 07:14:15;;;;;;;8.15;3.70;;;;;;;26.55;28.02;98146.34;5018541;28;20029;-77
2023/11/15 07:16:45;;;;;;;7.43;3.60;;;;;;;26.79;27.92;98149.84;5035219;28;20059;-79
2023/11/15 07:19:10;;;;;;;10.88;4.15;;;;;;;26.99;27.10;98145.91;5051578;28;20028;-82
2023/11/15 07:21:36;;;;;;;11.85;4.32;;;;;;;27.15;26.75;98137.16;5035185;28;20436;-80
2023/11/15 07:24:02;;;;;;;11.77;4.13;;;;;;;27.31;26.67;98137.44;5019317;28;20500;-79
2023/11/15 07:26:30;;;;;;;8.60;4.25;;;;;;;27.50;26.18;98124.63;5051559;28;20029;-80
2023/11/15 07:28:56;;;;;;;8.88;4.15;;;;;;;27.73;26.00;98124.50;5035350;28;20057;-77
2023/11/15 07:31:22;;;;;;;8.93;4.40;;;;;;;27.97;25.60;98130.56;5051187;28;20044;-78
2023/11/15 07:33:47;;;;;;;8.43;4.40;;;;;;;27.97;25.37;98110.94;5034496;28;20487;-79
2023/11/15 07:36:13;;;;;;;10.00;5.18;;;;;;;28.19;24.86;98116.34;5051517;28;20456;-77
2023/11/15 07:38:38;;;;;;;13.15;6.28;;;;;;;28.22;24.90;98121.22;5051632;28;20100;-77
2023/11/15 07:41:04;;;;;;;11.43;4.97;;;;;;;27.84;25.48;98116.63;5034367;28;20048;-78
2023/11/15 07:43:30;;;;;;;16.73;7.15;;;;;;;26.93;26.34;98109.38;5050804;28;20072;-78
2023/11/15 07:45:56;;;;;;;20.48;7.93;;;;;;;27.02;26.47;98105.28;5051007;28;20025;-77
2023/11/15 07:48:22;;;;;;;18.60;8.65;;;;;;;26.52;27.52;98115.53;5051497;28;20029;-79
2023/11/15 07:50:47;;;;;;;19.83;9.50;;;;;;;26.67;27.14;98096.31;5034446;28;20037;-78
2023/11/15 07:53:13;;;;;;;23.70;10.52;;;;;;;26.83;27.25;98093.94;5018137;28;20041;-79
2023/11/15 07:55:39;;;;;;;14.45;9.68;;;;;;;27.04;27.15;98103.16;5034091;28;20065;-79
2023/11/15 07:58:06;;;;;;;20.08;10.10;;;;;;;27.22;26.60;98102.16;5017975;28;20032;-77
2023/11/15 08:00:35;;;;;;;23.73;10.30;;;;;;;27.34;26.81;98112.84;5018191;28;20420;-78
2023/11/15 08:03:01;;;;;;;23.02;11.25;;;;;;;27.66;26.24;98112.31;5018834;28;20040;-78
2023/11/15 08:05:26;;;;;;;20.35;10.57;;;;;;;27.89;26.00;98114.81;5050888;28;20028;-80
2023/11/15 08:07:52;;;;;;;20.88;10.40;;;;;;;28.00;25.67;98112.34;5034903;28;20072;-78
2023/11/15 08:10:18;;;;;;;22.10;10.63;;;;;;;28.10;25.43;98112.47;5018232;28;20037;-83
2023/11/15 08:12:44;;;;;;;21.48;10.63;;;;;;;28.34;25.02;98102.34;5034583;28;20041;-79
2023/11/15 08:15:15;;;;;;;25.73;9.32;;;;;;;28.51;25.20;98087.00;5034468;28;20335;-79
2023/11/15 08:17:41;;;;;;;18.63;8.75;;;;;;;28.68;24.86;98094.22;5035484;28;20108;-78
2023/11/15 08:20:10;;;;;;;19.27;9.02;;;;;;;28.97;24.20;98083.25;5018395;28;20025;-80
2023/11/15 08:22:37;;;;;;;22.65;7.80;;;;;;;29.26;24.40;98083.03;5051298;28;20090;-79
2023/11/15 08:25:07;;;;;;;16.30;6.55;;;;;;;29.54;23.69;98084.59;5051459;28;20159;-77
2023/11/15 08:27:34;;;;;;;13.48;6.00;;;;;;;29.82;23.71;98078.13;5018569;28;20036;-77
2023/11/15 08:30:03;;;;;;;10.52;5.30;;;;;;;30.17;23.26;98075.91;5034959;28;20060;-78
2023/11/15 08:32:29;;;;;;;13.80;6.50;;;;;;;29.63;23.51;98077.69;5034618;28;20060;-81
2023/11/15 08:34:55;;;;;;;12.27;5.13;;;;;;;29.96;22.71;98075.78;5034108;28;20071;-78
2023/11/15 08:37:20;;;;;;;11.38;5.35;;;;;;;30.26;22.55;98069.78;5034382;28;20514;-79
2023/11/15 08:39:46;;;;;;;10.18;5.00;;;;;;;30.35;22.71;98067.41;5034351;28;20037;-78
2023/11/15 08:42:12;;;;;;;6.65;4.28;;;;;;;30.39;22.42;98065.00;5034202;28;20412;-77
2023/11/15 08:44:41;;;;;;;10.73;4.05;;;;;;;30.06;22.31;98048.13;5050361;28;20036;-79
2023/11/15 08:47:07;;;;;;;6.93;3.60;;;;;;;29.63;22.88;98052.69;5034761;28;20029;-78
2023/11/15 08:49:32;;;;;;;10.70;3.80;;;;;;;28.94;23.58;98055.03;5051102;28;20045;-78
2023/11/15 08:51:58;;;;;;;5.75;2.70;;;;;;;29.00;22.81;98054.00;5017566;28;20128;-79
2023/11/15 08:54:23;;;;;;;5.65;2.85;;;;;;;28.43;22.95;98041.81;5036174;28;20105;-78
2023/11/15 08:56:50;;;;;;;9.25;3.15;;;;;;;28.02;23.60;98040.47;5020916;28;20419;-78
2023/11/15 08:59:15;;;;;;;6.25;3.75;;;;;;;27.60;23.75;98041.72;5053904;28;20043;-79
2023/11/15 09:01:41;;;;;;;9.73;6.13;;;;;;;27.14;24.84;98041.75;5020798;28;20421;-80
2023/11/15 09:04:07;;;;;;;9.10;4.60;;;;;;;26.72;25.21;98028.66;5020940;28;20040;-79
2023/11/15 09:06:34;;;;;;;14.00;4.10;;;;;;;26.42;25.90;98029.66;5053966;28;20396;-80
2023/11/15 09:09:01;;;;;;;7.53;3.53;;;;;;;26.16;26.55;98031.03;5053780;28;20024;-78
2023/11/15 09:11:28;;;;;;;6.57;3.28;;;;;;;26.00;26.66;98030.69;5037461;28;20033;-79
2023/11/15 09:13:54;;;;;;;10.48;5.40;;;;;;;25.93;27.14;98021.13;5053408;28;20027;-77
2023/11/15 09:16:21;;;;;;;7.13;4.57;;;;;;;25.69;27.75;98021.13;5053795;28;20079;-77
2023/11/15 09:18:48;;;;;;;6.63;3.63;;;;;;;25.50;28.28;98016.97;5037022;28;20040;-78
2023/11/15 09:21:14;;;;;;;4.97;3.17;;;;;;;25.40;28.04;98030.91;5020859;28;20481;-78
2023/11/15 09:23:41;;;;;;;5.82;3.15;;;;;;;25.23;28.10;98034.19;5037389;28;20041;-78
2023/11/15 09:26:19;;;;;;;4.07;2.90;;;;;;;25.09;28.16;98022.06;5020978;28;20041;-78
2023/11/15 09:28:44;;;;;;;6.43;3.63;;;;;;;25.04;28.30;98024.63;5039109;28;20029;-78
2023/11/15 09:31:12;;;;;;;11.75;3.90;;;;;;;25.52;28.03;98023.69;5020537;28;20060;-80
2023/11/15 09:33:38;;;;;;;7.35;3.90;;;;;;;25.83;27.32;98013.69;5020715;28;20074;-78
2023/11/15 09:36:07;;;;;;;9.38;3.85;;;;;;;25.36;27.99;98014.50;5053294;28;20025;-78
2023/11/15 09:38:33;;;;;;;11.98;4.55;;;;;;;25.20;28.33;98013.28;5021118;28;20021;-79
2023/11/15 09:41:00;;;;;;;14.60;4.70;;;;;;;25.05;28.31;98012.91;5036880;28;20029;-78
2023/11/15 09:43:27;;;;;;;14.30;4.53;;;;;;;24.92;29.11;98006.72;5020610;28;20033;-79
2023/11/15 09:45:54;;;;;;;11.23;4.20;;;;;;;24.82;28.83;98006.44;5036788;28;20029;-82
2023/11/15 09:48:20;;;;;;;10.05;4.13;;;;;;;24.79;29.03;98019.44;5020544;28;20268;-77
2023/11/15 09:50:48;;;;;;;9.77;4.18;;;;;;;24.87;28.70;98011.09;5036714;28;20045;-79
2023/11/15 09:53:16;;;;;;;12.07;4.28;;;;;;;25.02;29.01;98006.16;5020411;28;20032;-78
2023/11/15 09:55:42;;;;;;;12.07;4.35;;;;;;;25.31;28.32;98003.69;5037337;28;20037;-77
2023/11/15 09:58:07;;;;;;;9.27;3.80;;;;;;;25.17;28.61;97997.72;5036126;28;20033;-78
2023/11/15 10:00:33;;;;;;;9.35;3.90;;;;;;;25.18;28.31;98009.22;5020068;28;20429;-78
2023/11/15 10:02:58;;;;;;;7.90;3.58;;;;;;;24.90;28.86;97997.31;5036249;28;20033;-77
2023/11/15 10:05:28;;;;;;;7.55;3.60;;;;;;;25.17;28.38;98002.25;5019394;28;20041;-79
2023/11/15 10:08:15;;;;;;;8.85;3.40;;;;;;;24.87;28.81;97989.75;5053145;28;20543;-78
2023/11/15 10:10:43;;;;;;;10.95;3.80;;;;;;;24.70;29.20;97985.06;5021568;28;20480;-78
2023/11/15 10:13:16;;;;;;;8.60;3.38;;;;;;;24.55;29.32;97979.28;5036524;28;20372;-78
2023/11/15 10:15:43;;;;;;;9.00;3.22;;;;;;;24.46;29.22;97991.31;5036552;28;20029;-78
2023/11/15 10:18:18;;;;;;;8.50;3.35;;;;;;;24.26;29.66;97992.38;5052846;28;20040;-77
2023/11/15 10:20:43;;;;;;;7.55;3.33;;;;;;;24.24;29.92;97985.63;5037167;28;20037;-79
2023/11/15 10:23:13;;;;;;;8.27;3.17;;;;;;;24.04;30.13;97994.69;5019388;28;20040;-78
2023/11/15 10:25:50;;;;;;;6.88;2.97;;;;;;;23.84;30.43;97997.56;5036429;28;20033;-78
2023/11/15 10:28:16;;;;;;;6.00;2.80;;;;;;;23.65;30.71;98002.81;5036836;28;20144;-79
2023/11/15 10:30:42;;;;;;;7.45;2.90;;;;;;;23.50;31.34;98010.34;5019707;28;20071;-82
2023/11/15 10:33:13;;;;;;;7.53;2.80;;;;;;;23.27;32.13;97994.97;5019671;28;20114;-78
2023/11/15 10:35:38;;;;;;;5.60;2.83;;;;;;;23.08;32.82;98004.72;5035979;28;20170;-78
2023/11/15 10:38:09;;;;;;;6.93;3.30;;;;;;;22.88;33.70;98003.00;5035963;28;20116;-77
2023/11/15 10:40:37;;;;;;;7.57;3.22;;;;;;;22.76;34.63;98007.34;5020251;28;20029;-76
2023/11/15 10:43:04;;;;;;;6.13;3.28;;;;;;;22.54;35.24;98006.88;5052065;28;20040;-78
2023/11/15 10:45:31;;;;;;;4.70;3.47;;;;;;;22.36;35.56;97997.75;5035919;28;20116;-79
2023/11/15 10:48:09;;;;;;;7.97;3.60;;;;;;;22.18;36.33;98016.97;5019145;28;20036;-81
2023/11/15 10:50:44;;;;;;;6.15;3.55;;;;;;;22.06;36.80;98018.66;5019402;28;20033;-79
2023/11/15 10:53:12;;;;;;;6.00;3.50;;;;;;;21.90;37.24;98017.28;5020209;28;20090;-76
2023/11/15 10:55:39;;;;;;;;;;;;;;;21.82;37.61;98015.66;5021800;28;20040;-79
2023/11/15 10:58:05;;;;;;;5.57;3.65;;;;;;;21.66;37.97;97997.47;5038462;28;19913;-81
2023/11/15 11:00:31;;;;;;;7.55;3.88;;;;;;;21.61;38.17;98008.72;5020428;28;20041;-80
2023/11/15 11:02:57;;;;;;;6.68;3.78;;;;;;;21.55;38.41;97998.09;5022500;28;20024;-79
2023/11/15 11:05:48;;;;;;;7.20;3.47;;;;;;;21.49;38.22;98005.03;5022182;28;20037;-79
2023/11/15 11:08:26;;;;;;;6.80;3.50;;;;;;;21.42;38.47;98010.34;5033074;28;20496;-80
2023/11/15 11:11:21;;;;;;;9.60;4.43;;;;;;;21.35;38.65;98020.16;5052692;28;20033;-83
2023/11/15 11:14:20;;;;;;;7.57;3.95;;;;;;;21.29;39.14;98027.06;5035288;28;20029;-79
2023/11/15 11:16:47;;;;;;;9.02;4.10;;;;;;;21.29;39.05;98021.78;5019801;28;20044;-82
2023/11/15 11:19:17;;;;;;;8.60;4.45;;;;;;;21.31;39.05;98011.75;5018767;28;20052;-82
2023/11/15 11:22:06;;;;;;;9.38;3.97;;;;;;;21.46;39.08;98008.09;5018598;28;20494;-78
2023/11/15 11:24:38;;;;;;;8.23;4.05;;;;;;;21.64;38.21;98003.00;5033747;28;20051;-79
2023/11/15 11:27:16;;;;;;;10.60;3.90;;;;;;;21.65;37.98;98004.63;5034735;28;20044;-78
2023/11/15 11:30:02;;;;;;;7.53;4.03;;;;;;;21.63;38.29;98004.03;5050576;28;20033;-78